Time;durP1;ratioP1;P1;durP2;ratioP2;P2;SDS_P1;SDS_P2;PMS_P1;PMS_P2;Temp;Humidity;BMP_temperature;BMP_pressure;BME280_temperature;BME280_humidity;BME280_pressure;Samples;Min_cycle;Max_cycle;Signal;HPM_P1;HPM_P2
2021/07/20 00:01:44;;;;;;;11.33;6.00;;;23.70;66.40;;;;;;5047960;28;20296;-75
2021/07/20 00:04:11;;;;;;;14.40;6.10;;;23.70;67.70;;;;;;5041380;28;20648;-75
2021/07/20 00:06:48;;;;;;;8.43;6.73;;;23.70;67.60;;;;;;5045370;28;20265;-75
2021/07/20 00:09:15;;;;;;;10.37;5.53;;;23.70;68.00;;;;;;5043765;28;20211;-75
2021/07/20 00:11:42;;;;;;;9.77;6.23;;;23.60;68.10;;;;;;5046461;28;20211;-75
2021/07/20 00:14:10;;;;;;;11.43;6.90;;;23.60;68.10;;;;;;5043911;28;20211;-75
2021/07/20 00:16:37;;;;;;;13.13;5.93;;;23.60;68.30;;;;;;5043520;28;20203;-75
2021/07/20 00:19:04;;;;;;;11.37;6.77;;;23.70;67.90;;;;;;5043652;28;20650;-75
2021/07/20 00:21:31;;;;;;;10.53;5.73;;;23.70;67.30;;;;;;5047046;28;20283;-75
2021/07/20 00:23:58;;;;;;;9.13;5.67;;;23.70;66.80;;;;;;5042869;28;20702;-75
2021/07/20 00:26:25;;;;;;;13.27;6.20;;;23.70;67.50;;;;;;5044072;28;20284;-75
2021/07/20 00:28:52;;;;;;;8.23;5.40;;;23.70;67.30;;;;;;5046856;28;20234;-75
2021/07/20 00:31:19;;;;;;;10.27;5.70;;;23.70;67.90;;;;;;5043542;28;20250;-75
2021/07/20 00:33:47;;;;;;;9.13;6.30;;;23.80;68.20;;;;;;5043582;28;20280;-75
2021/07/20 00:36:14;;;;;;;9.17;5.90;;;23.70;68.60;;;;;;5039916;28;20285;-75
2021/07/20 00:38:41;;;;;;;12.27;6.17;;;23.70;68.30;;;;;;5046806;28;20706;-75
2021/07/20 00:41:08;;;;;;;9.57;5.33;;;23.70;68.50;;;;;;5043680;28;20223;-75
2021/07/20 00:43:35;;;;;;;9.10;5.70;;;23.70;68.20;;;;;;5048518;28;20696;-75
2021/07/20 00:46:02;;;;;;;10.33;5.63;;;23.70;67.80;;;;;;5042698;28;20218;-75
2021/07/20 00:48:29;;;;;;;13.80;7.07;;;23.70;68.10;;;;;;5043673;28;20300;-75
2021/07/20 00:50:56;;;;;;;16.50;6.53;;;23.70;68.60;;;;;;5046286;28;20249;-75
2021/07/20 00:53:23;;;;;;;13.07;6.20;;;23.70;69.00;;;;;;5044190;28;20211;-75
2021/07/20 00:55:50;;;;;;;10.27;6.30;;;23.70;69.50;;;;;;5045622;28;20222;-75
2021/07/20 00:58:18;;;;;;;8.50;6.20;;;23.70;69.30;;;;;;5044267;28;20638;-75
2021/07/20 01:00:51;;;;;;;8.53;6.10;;;23.70;69.40;;;;;;5045572;28;20273;-75
2021/07/20 01:03:19;;;;;;;16.97;6.63;;;23.60;69.50;;;;;;5042537;28;20272;-75
2021/07/20 01:05:46;;;;;;;11.03;6.60;;;23.70;69.70;;;;;;5043695;28;20223;-75
2021/07/20 01:08:15;;;;;;;11.97;6.40;;;23.70;70.00;;;;;;5045801;28;20502;-75
2021/07/20 01:10:43;;;;;;;8.77;5.87;;;23.60;70.20;;;;;;5042514;28;20217;-75
2021/07/20 01:13:14;;;;;;;7.77;5.10;;;23.60;70.40;;;;;;5043341;28;20635;-75
2021/07/20 01:15:41;;;;;;;10.77;5.33;;;23.60;69.60;;;;;;5041883;28;20276;-75
2021/07/20 01:18:09;;;;;;;12.47;5.77;;;23.60;69.10;;;;;;5040641;28;20214;-75
2021/07/20 01:20:36;;;;;;;11.57;6.13;;;23.60;68.70;;;;;;5042572;28;20277;-75
2021/07/20 01:23:21;;;;;;;7.93;4.93;;;23.60;68.20;;;;;;5045821;28;20221;-75
2021/07/20 01:25:49;;;;;;;11.93;5.30;;;23.50;68.30;;;;;;5044449;28;20249;-75
2021/07/20 01:28:22;;;;;;;10.50;5.00;;;23.50;68.20;;;;;;5045949;28;20252;-75
2021/07/20 01:31:01;;;;;;;8.40;5.10;;;23.50;67.60;;;;;;5044196;28;20669;-75
2021/07/20 01:33:31;;;;;;;13.60;5.60;;;23.60;66.90;;;;;;5039827;28;20222;-75
2021/07/20 01:36:01;;;;;;;10.67;5.90;;;23.60;66.30;;;;;;5038757;28;20218;-75
2021/07/20 01:38:30;;;;;;;12.40;5.30;;;23.60;66.50;;;;;;5042146;28;20365;-75
2021/07/20 01:41:00;;;;;;;10.93;5.93;;;23.60;66.60;;;;;;5038752;28;20556;-75
2021/07/20 01:43:28;;;;;;;10.50;5.20;;;23.60;66.00;;;;;;5043271;28;20268;-75
2021/07/20 01:45:57;;;;;;;7.57;5.07;;;23.60;65.70;;;;;;5043154;28;20215;-75
2021/07/20 01:48:27;;;;;;;9.40;5.37;;;23.60;65.30;;;;;;5045532;28;20299;-75
2021/07/20 01:50:55;;;;;;;9.77;5.27;;;23.60;65.00;;;;;;5044907;28;20214;-75
2021/07/20 01:53:22;;;;;;;8.27;5.40;;;23.70;64.40;;;;;;5042599;28;20215;-75
2021/07/20 01:55:49;;;;;;;12.90;5.47;;;23.60;64.30;;;;;;5045096;28;20210;-75
2021/07/20 01:58:16;;;;;;;12.33;6.03;;;23.70;64.40;;;;;;5042306;28;20607;-75
2021/07/20 02:00:43;;;;;;;11.63;4.83;;;23.70;64.50;;;;;;5039864;28;20323;-75
2021/07/20 02:03:20;;;;;;;10.53;5.43;;;23.60;64.50;;;;;;5040527;28;20261;-75
2021/07/20 02:08:44;;;;;;;8.63;5.03;;;23.60;64.60;;;;;;5038989;28;20671;-75
2021/07/20 02:11:26;;;;;;;10.47;5.80;;;23.60;64.20;;;;;;5042128;28;20206;-75
2021/07/20 02:14:04;;;;;;;9.07;5.70;;;23.60;63.90;;;;;;5041972;28;20217;-75
2021/07/20 02:16:35;;;;;;;8.47;5.37;;;23.70;64.10;;;;;;5038753;28;20230;-75
2021/07/20 02:19:11;;;;;;;6.77;5.30;;;23.60;64.30;;;;;;5044945;28;20206;-75
2021/07/20 02:21:44;;;;;;;9.57;5.13;;;23.60;64.60;;;;;;5043270;28;20532;-75
2021/07/20 02:24:12;;;;;;;13.10;5.53;;;23.70;64.70;;;;;;5042898;28;20218;-75
2021/07/20 02:26:41;;;;;;;12.63;5.37;;;23.70;64.40;;;;;;5041644;28;20214;-75
2021/07/20 02:29:10;;;;;;;9.90;5.93;;;23.70;64.20;;;;;;5043958;28;20239;-75
2021/07/20 02:31:38;;;;;;;11.90;5.63;;;23.70;63.90;;;;;;5041620;28;20211;-75
2021/07/20 02:34:06;;;;;;;13.37;5.63;;;23.70;63.90;;;;;;5042174;28;20268;-75
2021/07/20 02:36:36;;;;;;;6.87;5.30;;;23.70;64.50;;;;;;5042458;28;20654;-75
2021/07/20 02:39:09;;;;;;;9.87;5.67;;;23.70;64.50;;;;;;5043949;28;20246;-75
2021/07/20 02:41:36;;;;;;;9.77;5.40;;;23.70;64.20;;;;;;5041201;28;20230;-76
2021/07/20 02:44:04;;;;;;;9.07;4.97;;;23.60;64.20;;;;;;5043011;28;20215;-75
2021/07/20 02:46:32;;;;;;;10.33;5.43;;;23.60;64.30;;;;;;5041566;28;20353;-75
2021/07/20 02:49:00;;;;;;;12.13;6.03;;;23.60;64.00;;;;;;5044408;28;20325;-75
2021/07/20 02:51:27;;;;;;;11.10;5.70;;;23.50;64.40;;;;;;5041683;28;20211;-75
2021/07/20 02:54:00;;;;;;;16.47;5.70;;;23.50;64.20;;;;;;5044263;28;20360;-75
2021/07/20 02:56:28;;;;;;;10.43;5.53;;;23.50;65.00;;;;;;5041101;28;20218;-75
2021/07/20 02:59:01;;;;;;;8.30;5.73;;;23.40;65.20;;;;;;5036980;28;20219;-75
2021/07/20 03:01:31;;;;;;;13.10;5.60;;;23.40;65.60;;;;;;5030065;28;20225;-75
2021/07/20 03:04:00;;;;;;;6.87;4.83;;;23.40;65.90;;;;;;5040662;28;20254;-75
2021/07/20 03:06:28;;;;;;;8.50;6.17;;;23.40;66.40;;;;;;5044192;28;20255;-75
2021/07/20 03:08:58;;;;;;;7.83;5.00;;;23.40;66.10;;;;;;5045188;28;20234;-75
2021/07/20 03:11:31;;;;;;;12.73;5.60;;;23.40;65.70;;;;;;5044484;28;20279;-75
2021/07/20 03:14:04;;;;;;;8.77;5.57;;;23.40;66.60;;;;;;5046768;28;20209;-75
2021/07/20 03:16:34;;;;;;;12.70;5.33;;;23.30;67.40;;;;;;5047292;28;20211;-75
2021/07/20 03:19:01;;;;;;;11.03;5.87;;;23.20;68.00;;;;;;5046609;28;20210;-75
2021/07/20 03:21:30;;;;;;;9.07;5.40;;;23.20;68.40;;;;;;5047693;28;20222;-75
2021/07/20 03:23:58;;;;;;;10.77;5.67;;;23.10;69.10;;;;;;5046089;28;20222;-75
2021/07/20 03:26:25;;;;;;;9.30;5.93;;;23.10;69.60;;;;;;5047029;28;20218;-75
2021/07/20 03:28:55;;;;;;;10.50;5.43;;;23.10;70.30;;;;;;5049035;28;20238;-75
2021/07/20 03:31:22;;;;;;;8.13;5.73;;;23.00;70.90;;;;;;5048495;28;20214;-75
2021/07/20 03:33:50;;;;;;;9.27;5.43;;;23.00;71.30;;;;;;5046152;28;20210;-75
2021/07/20 03:36:18;;;;;;;8.63;5.80;;;23.00;71.50;;;;;;5047350;28;20211;-75
2021/07/20 03:38:45;;;;;;;9.20;5.70;;;23.00;71.30;;;;;;5043908;28;20254;-75
2021/07/20 03:41:13;;;;;;;9.73;6.00;;;22.90;71.60;;;;;;5046085;28;20218;-75
2021/07/20 03:43:40;;;;;;;8.47;5.53;;;22.90;72.20;;;;;;5045924;28;20268;-75
2021/07/20 03:46:08;;;;;;;10.27;6.20;;;22.90;72.00;;;;;;5046275;28;20222;-75
2021/07/20 03:48:36;;;;;;;11.50;5.60;;;22.80;72.10;;;;;;5046401;28;20273;-75
2021/07/20 03:51:03;;;;;;;8.63;5.70;;;22.80;71.90;;;;;;5046078;28;20225;-75
2021/07/20 03:53:32;;;;;;;11.07;5.90;;;22.80;71.90;;;;;;5044505;28;20275;-75
2021/07/20 03:56:02;;;;;;;7.63;5.80;;;22.80;72.50;;;;;;5046123;28;20265;-75
2021/07/20 03:58:33;;;;;;;14.23;5.93;;;22.80;72.80;;;;;;5045971;28;20214;-75
2021/07/20 04:01:02;;;;;;;14.53;5.77;;;22.80;73.00;;;;;;5046811;28;20215;-75
2021/07/20 04:03:31;;;;;;;10.77;5.90;;;22.80;73.30;;;;;;5044050;28;20215;-75
2021/07/20 04:06:02;;;;;;;10.20;5.63;;;22.90;73.40;;;;;;5045163;28;20227;-75
2021/07/20 04:08:31;;;;;;;14.80;6.40;;;22.90;73.20;;;;;;5044068;28;20844;-75
2021/07/20 04:10:59;;;;;;;14.27;5.97;;;22.80;73.40;;;;;;5047464;28;20575;-75
2021/07/20 04:13:27;;;;;;;9.60;6.03;;;22.80;73.60;;;;;;5043913;28;20215;-75
2021/07/20 04:15:56;;;;;;;11.97;6.30;;;22.80;74.10;;;;;;5044346;28;20288;-75
2021/07/20 04:18:24;;;;;;;8.93;5.83;;;22.70;73.90;;;;;;5047390;28;20214;-75
2021/07/20 04:20:52;;;;;;;8.83;5.80;;;22.70;74.00;;;;;;5044707;28;20534;-75
2021/07/20 04:23:21;;;;;;;9.70;6.27;;;22.70;74.00;;;;;;5046212;28;20219;-75
2021/07/20 04:25:53;;;;;;;6.43;5.73;;;22.70;74.00;;;;;;5044414;28;20218;-75
2021/07/20 04:28:21;;;;;;;12.13;5.57;;;22.70;73.80;;;;;;5040143;28;20250;-75
2021/07/20 04:30:49;;;;;;;8.33;5.97;;;22.80;73.90;;;;;;5043669;28;20214;-75
2021/07/20 04:33:24;;;;;;;13.23;6.40;;;22.80;74.60;;;;;;5036632;28;20570;-76
2021/07/20 04:35:56;;;;;;;11.17;6.43;;;22.80;75.30;;;;;;5041969;28;20253;-75
2021/07/20 04:38:26;;;;;;;10.77;6.50;;;22.80;75.60;;;;;;5045646;28;20246;-75
2021/07/20 04:40:54;;;;;;;9.03;5.53;;;22.80;75.10;;;;;;5045156;28;20281;-75
2021/07/20 04:43:21;;;;;;;11.50;6.17;;;22.90;74.10;;;;;;5045752;28;20206;-75
2021/07/20 04:45:52;;;;;;;11.50;6.77;;;22.90;73.70;;;;;;5045817;28;20218;-75
2021/07/20 04:48:20;;;;;;;12.77;6.90;;;23.00;72.90;;;;;;5041145;28;20693;-75
2021/07/20 04:50:49;;;;;;;9.70;6.20;;;23.00;71.90;;;;;;5045592;28;20253;-75
2021/07/20 04:53:17;;;;;;;9.13;5.90;;;23.10;72.10;;;;;;5045326;28;20586;-75
2021/07/20 04:55:46;;;;;;;10.57;5.73;;;23.10;71.40;;;;;;5045022;28;20239;-75
2021/07/20 04:58:14;;;;;;;13.10;6.13;;;23.20;70.60;;;;;;5045604;28;20215;-75
2021/07/20 05:00:44;;;;;;;13.10;7.83;;;23.20;70.50;;;;;;5045051;28;20218;-75
2021/07/20 05:03:14;;;;;;;13.40;7.03;;;23.30;70.80;;;;;;5047205;28;20713;-75
2021/07/20 05:05:42;;;;;;;9.77;7.40;;;23.40;71.10;;;;;;5045750;28;20234;-76
2021/07/20 05:08:12;;;;;;;15.70;7.60;;;23.50;71.20;;;;;;5043149;28;20295;-76
2021/07/20 05:10:43;;;;;;;18.93;6.83;;;23.60;70.80;;;;;;5044666;28;20219;-75
2021/07/20 05:13:17;;;;;;;12.90;7.13;;;23.60;70.00;;;;;;5043565;28;20218;-76
2021/07/20 05:16:06;;;;;;;12.57;7.30;;;23.50;69.80;;;;;;5035392;28;20220;-75
2021/07/20 05:18:36;;;;;;;11.77;7.57;;;23.50;69.70;;;;;;5045177;28;20211;-75
2021/07/20 05:21:04;;;;;;;8.80;7.07;;;23.50;70.30;;;;;;5046149;28;20218;-75
2021/07/20 05:23:33;;;;;;;15.07;7.83;;;23.40;70.40;;;;;;5043288;28;20222;-75
2021/07/20 05:26:01;;;;;;;9.70;7.37;;;23.40;70.50;;;;;;5044670;28;20218;-75
2021/07/20 05:28:30;;;;;;;13.67;8.00;;;23.50;70.50;;;;;;5046884;28;20230;-75
2021/07/20 05:30:59;;;;;;;12.17;7.57;;;23.60;70.00;;;;;;5042060;28;20272;-75
2021/07/20 05:33:27;;;;;;;12.47;7.37;;;23.70;70.10;;;;;;5043773;28;20210;-75
2021/07/20 05:35:59;;;;;;;13.47;7.53;;;23.80;69.60;;;;;;5043054;28;20212;-75
2021/07/20 05:38:28;;;;;;;20.30;8.40;;;24.00;68.70;;;;;;5036676;28;20305;-75
2021/07/20 05:40:57;;;;;;;13.37;8.60;;;24.10;68.20;;;;;;5039111;28;20215;-75
2021/07/20 05:43:26;;;;;;;14.70;7.37;;;24.20;68.60;;;;;;5042712;28;20210;-75
2021/07/20 05:45:57;;;;;;;16.13;7.37;;;24.30;68.50;;;;;;5046060;28;20824;-75
2021/07/20 05:48:25;;;;;;;17.40;8.33;;;24.60;67.80;;;;;;5042926;28;20321;-75
2021/07/20 05:50:56;;;;;;;12.20;7.47;;;24.80;66.80;;;;;;5045387;28;20561;-75
2021/07/20 05:53:25;;;;;;;12.57;7.60;;;24.90;66.40;;;;;;5042400;28;20211;-76
2021/07/20 05:55:55;;;;;;;13.53;6.83;;;25.00;65.40;;;;;;5042008;28;20236;-75
2021/07/20 05:58:23;;;;;;;10.97;6.97;;;25.00;65.60;;;;;;5044479;28;20301;-75
2021/07/20 06:00:52;;;;;;;10.50;6.93;;;25.10;66.00;;;;;;5046414;28;20628;-75
2021/07/20 06:03:23;;;;;;;12.53;6.80;;;25.20;66.00;;;;;;5044342;28;20229;-75
2021/07/20 06:05:52;;;;;;;8.87;6.27;;;25.30;64.70;;;;;;5043740;28;20211;-75
2021/07/20 06:08:21;;;;;;;10.80;6.17;;;25.30;64.60;;;;;;5045287;28;20631;-76
2021/07/20 06:10:56;;;;;;;10.77;6.73;;;25.50;64.50;;;;;;5045619;28;20211;-75
2021/07/20 06:13:27;;;;;;;9.67;6.73;;;25.60;63.80;;;;;;5042707;28;20215;-75
2021/07/20 06:15:55;;;;;;;14.23;6.00;;;25.70;63.30;;;;;;5045097;28;20627;-76
2021/07/20 06:18:22;;;;;;;13.33;6.90;;;25.90;63.00;;;;;;5041379;28;20642;-75
2021/07/20 06:20:55;;;;;;;12.97;6.67;;;26.10;62.10;;;;;;5042475;28;20528;-75
2021/07/20 06:23:23;;;;;;;8.97;6.33;;;26.20;61.50;;;;;;5037095;28;20215;-75
2021/07/20 06:25:52;;;;;;;17.00;7.77;;;26.30;61.60;;;;;;5038998;28;20203;-75
2021/07/20 06:28:21;;;;;;;12.10;6.23;;;26.50;62.20;;;;;;5038449;28;20227;-75
2021/07/20 06:30:49;;;;;;;9.70;6.73;;;26.70;60.90;;;;;;5038134;28;20218;-75
2021/07/20 06:33:18;;;;;;;13.87;6.83;;;26.80;61.60;;;;;;5038133;28;20686;-75
2021/07/20 06:35:46;;;;;;;13.63;7.13;;;27.00;60.80;;;;;;5050840;28;20212;-75
2021/07/20 06:38:17;;;;;;;10.53;6.23;;;27.10;60.00;;;;;;5043912;28;20254;-75
2021/07/20 06:40:47;;;;;;;12.07;6.30;;;27.30;59.50;;;;;;5042359;28;20222;-77
2021/07/20 06:43:15;;;;;;;8.10;6.20;;;27.40;59.10;;;;;;5042401;28;20218;-75
2021/07/20 06:45:46;;;;;;;7.30;5.93;;;27.60;58.40;;;;;;5043953;28;20210;-75
2021/07/20 06:48:16;;;;;;;14.33;6.30;;;27.70;56.90;;;;;;5042668;28;20250;-75
2021/07/20 06:50:45;;;;;;;10.70;6.30;;;27.70;57.10;;;;;;5041231;28;20675;-73
2021/07/20 06:53:13;;;;;;;12.40;6.03;;;27.80;57.10;;;;;;5043846;28;20218;-74
2021/07/20 06:55:45;;;;;;;10.63;6.70;;;27.90;56.40;;;;;;5038483;28;20222;-75
2021/07/20 06:58:13;;;;;;;14.83;6.43;;;27.90;57.30;;;;;;5043631;28;20691;-75
2021/07/20 07:00:47;;;;;;;10.97;6.50;;;28.00;56.90;;;;;;5043441;28;20218;-75
2021/07/20 07:03:16;;;;;;;11.87;6.10;;;28.00;56.90;;;;;;5042228;28;20292;-75
2021/07/20 07:05:46;;;;;;;10.00;6.30;;;28.20;56.50;;;;;;5044391;28;20253;-75
2021/07/20 07:08:14;;;;;;;11.93;6.80;;;28.40;56.50;;;;;;5041768;28;20219;-73
2021/07/20 07:10:43;;;;;;;11.17;5.77;;;28.50;56.50;;;;;;5041318;28;20701;-73
2021/07/20 07:13:12;;;;;;;9.10;6.23;;;28.60;56.20;;;;;;5044864;28;20229;-73
2021/07/20 07:15:39;;;;;;;11.47;6.10;;;28.80;56.50;;;;;;5042083;28;20222;-73
2021/07/20 07:18:07;;;;;;;12.87;6.93;;;29.10;55.60;;;;;;5044687;28;20218;-74
2021/07/20 07:20:35;;;;;;;18.10;6.53;;;29.30;54.00;;;;;;5042081;28;20226;-73
2021/07/20 07:23:03;;;;;;;6.07;5.47;;;29.50;53.10;;;;;;5044001;28;20534;-74
2021/07/20 07:25:30;;;;;;;12.53;6.23;;;29.60;52.50;;;;;;5039342;28;20217;-74
2021/07/20 07:27:59;;;;;;;9.37;6.33;;;29.60;51.50;;;;;;5041510;28;20595;-74
2021/07/20 07:30:28;;;;;;;10.33;5.70;;;29.80;52.60;;;;;;5040302;28;20239;-73
2021/07/20 07:32:55;;;;;;;11.90;6.03;;;30.10;52.60;;;;;;5043865;28;20246;-73
2021/07/20 07:35:23;;;;;;;10.17;5.87;;;30.40;51.90;;;;;;5042871;28;20209;-74
2021/07/20 07:37:53;;;;;;;12.03;5.50;;;30.70;51.10;;;;;;5041292;28;20679;-74
2021/07/20 07:40:22;;;;;;;10.50;5.83;;;31.10;50.40;;;;;;5039976;28;20221;-74
2021/07/20 07:42:49;;;;;;;11.50;5.43;;;31.40;50.00;;;;;;5040518;28;20211;-74
2021/07/20 07:45:18;;;;;;;10.27;4.97;;;31.70;49.60;;;;;;5039524;28;20241;-74
2021/07/20 07:47:45;;;;;;;11.77;6.27;;;31.90;49.20;;;;;;5043271;28;20215;-74
2021/07/20 07:50:13;;;;;;;9.60;5.67;;;32.00;47.20;;;;;;5039009;28;20222;-74
2021/07/20 07:52:41;;;;;;;14.30;6.03;;;32.00;47.70;;;;;;5040111;28;20268;-74
2021/07/20 07:55:09;;;;;;;9.93;6.27;;;32.10;47.50;;;;;;5040057;28;20200;-74
2021/07/20 07:57:37;;;;;;;7.27;5.73;;;32.20;47.60;;;;;;5043505;28;20221;-73
2021/07/20 08:00:07;;;;;;;10.17;5.33;;;32.20;47.10;;;;;;5043813;28;20301;-74
2021/07/20 08:02:36;;;;;;;11.93;5.40;;;32.30;47.10;;;;;;5044133;28;20219;-74
2021/07/20 08:05:05;;;;;;;10.73;5.77;;;32.40;47.60;;;;;;5047956;28;20253;-74
2021/07/20 08:07:34;;;;;;;8.43;5.70;;;32.50;47.90;;;;;;5042924;28;20559;-74
2021/07/20 08:10:02;;;;;;;11.17;5.37;;;32.60;46.90;;;;;;5047241;28;20229;-74
2021/07/20 08:12:29;;;;;;;10.43;5.93;;;32.80;47.40;;;;;;5043402;28;20210;-74
2021/07/20 08:14:57;;;;;;;11.60;6.60;;;32.90;47.50;;;;;;5043527;28;20214;-74
2021/07/20 08:17:25;;;;;;;12.43;6.63;;;33.10;46.20;;;;;;5044242;28;20660;-74
2021/07/20 08:19:55;;;;;;;10.73;5.23;;;33.20;46.40;;;;;;5045264;28;20725;-74
2021/07/20 08:22:23;;;;;;;13.10;5.80;;;33.30;46.40;;;;;;5044268;28;20269;-74
2021/07/20 08:24:57;;;;;;;13.13;7.20;;;33.50;46.90;;;;;;5026390;28;20211;-74
2021/07/20 08:27:48;;;;;;;10.13;6.57;;;33.70;45.70;;;;;;5041613;28;20687;-74
2021/07/20 08:30:18;;;;;;;12.43;7.10;;;33.90;44.90;;;;;;5042674;28;20663;-74
2021/07/20 08:32:52;;;;;;;9.80;5.33;;;34.00;45.50;;;;;;5040102;28;20222;-74
2021/07/20 08:35:24;;;;;;;8.47;5.40;;;34.10;45.10;;;;;;5041149;28;20217;-74
2021/07/20 08:38:04;;;;;;;10.33;4.93;;;34.30;44.10;;;;;;5045521;28;20252;-74
2021/07/20 08:41:01;;;;;;;8.77;5.30;;;34.30;43.30;;;;;;5047383;28;20745;-74
2021/07/20 08:43:39;;;;;;;11.90;5.63;;;34.30;43.40;;;;;;5047260;28;20521;-74
2021/07/20 08:46:31;;;;;;;11.93;5.93;;;34.40;43.90;;;;;;5040291;28;20218;-74
2021/07/20 08:49:32;;;;;;;12.07;6.33;;;34.60;44.10;;;;;;5046338;28;20646;-74
2021/07/20 08:52:02;;;;;;;12.73;6.67;;;34.80;42.50;;;;;;5040181;28;20790;-75
2021/07/20 08:54:51;;;;;;;10.27;5.40;;;34.90;43.40;;;;;;5043532;28;20548;-72
2021/07/20 08:57:46;;;;;;;10.10;5.07;;;35.10;42.90;;;;;;5045899;28;20206;-72
2021/07/20 09:00:16;;;;;;;11.47;6.00;;;35.20;42.90;;;;;;5042691;28;20218;-72
2021/07/20 09:02:55;;;;;;;9.10;5.40;;;35.30;43.00;;;;;;5046566;28;20211;-76
2021/07/20 09:05:32;;;;;;;11.03;5.37;;;35.30;40.70;;;;;;5044398;28;20312;-73
2021/07/20 09:08:26;;;;;;;8.93;5.20;;;35.50;41.90;;;;;;5045712;28;20344;-76
2021/07/20 09:11:01;;;;;;;8.83;4.90;;;35.60;42.10;;;;;;5041151;28;20227;-76
2021/07/20 09:13:33;;;;;;;10.67;4.63;;;35.70;41.20;;;;;;5045132;28;20214;-72
2021/07/20 09:16:20;;;;;;;6.77;4.60;;;35.90;40.00;;;;;;5045455;28;20307;-75
2021/07/20 09:18:52;;;;;;;10.80;4.90;;;35.90;39.90;;;;;;5040418;28;20269;-75
2021/07/20 09:21:22;;;;;;;7.47;4.57;;;35.80;40.30;;;;;;5044495;28;20222;-75
2021/07/20 09:24:10;;;;;;;11.93;4.83;;;35.80;40.80;;;;;;5044904;28;20222;-75
2021/07/20 09:26:46;;;;;;;10.53;4.57;;;35.90;40.10;;;;;;5041194;28;20651;-75
2021/07/20 09:29:21;;;;;;;10.47;4.80;;;36.10;39.40;;;;;;5042984;28;20234;-75
2021/07/20 09:32:03;;;;;;;12.40;4.63;;;36.20;38.40;;;;;;5042486;28;20210;-75
2021/07/20 09:34:49;;;;;;;8.30;4.63;;;36.30;38.60;;;;;;5038904;28;20229;-75
2021/07/20 09:37:28;;;;;;;11.20;5.07;;;36.40;37.70;;;;;;5044836;28;20206;-74
2021/07/20 09:40:11;;;;;;;14.03;4.83;;;36.40;37.40;;;;;;5038513;28;20211;-73
2021/07/20 09:42:51;;;;;;;15.20;4.83;;;36.40;39.40;;;;;;5042716;28;20210;-74
2021/07/20 09:45:21;;;;;;;7.33;4.50;;;36.50;39.40;;;;;;5046187;28;20554;-74
2021/07/20 09:47:53;;;;;;;11.27;5.50;;;36.60;38.80;;;;;;5038000;28;20227;-74
2021/07/20 09:50:22;;;;;;;7.70;4.43;;;36.70;39.00;;;;;;5035367;28;20237;-72
2021/07/20 09:53:15;;;;;;;12.97;4.53;;;36.80;38.70;;;;;;5045221;28;20206;-72
2021/07/20 09:55:51;;;;;;;7.00;4.83;;;36.90;38.30;;;;;;5041601;28;20214;-73
2021/07/20 09:58:51;;;;;;;6.20;4.23;;;36.90;39.20;;;;;;5041442;28;20211;-73
2021/07/20 10:01:31;;;;;;;13.00;4.80;;;36.90;38.10;;;;;;5040010;28;20635;-73
2021/07/20 10:04:08;;;;;;;9.93;4.77;;;37.00;39.00;;;;;;5041723;28;20215;-72
2021/07/20 10:07:14;;;;;;;9.47;4.43;;;37.10;38.30;;;;;;5039551;28;20246;-73
2021/07/20 10:09:58;;;;;;;10.43;4.20;;;37.10;37.70;;;;;;5037688;28;20233;-72
2021/07/20 10:12:41;;;;;;;9.90;4.83;;;37.00;37.40;;;;;;5042299;28;20719;-73
2021/07/20 10:15:10;;;;;;;11.00;4.53;;;36.90;37.10;;;;;;5038470;28;20207;-73
2021/07/20 10:18:02;;;;;;;5.33;3.87;;;36.90;36.50;;;;;;5043253;28;20246;-76
2021/07/20 10:20:38;;;;;;;6.50;4.10;;;36.80;36.10;;;;;;5036706;28;20214;-78
2021/07/20 10:23:34;;;;;;;10.00;4.43;;;36.80;37.10;;;;;;5043202;28;20221;-73
2021/07/20 10:26:30;;;;;;;9.27;3.97;;;37.00;38.00;;;;;;5037983;28;20639;-72
2021/07/20 10:29:20;;;;;;;6.13;4.10;;;37.00;37.70;;;;;;5036836;28;20231;-73
2021/07/20 10:32:13;;;;;;;11.33;4.63;;;37.10;36.60;;;;;;5044550;28;20662;-72
2021/07/20 10:34:48;;;;;;;12.93;4.20;;;37.20;38.20;;;;;;5044460;28;20357;-73
2021/07/20 10:37:19;;;;;;;10.87;4.53;;;37.30;37.30;;;;;;5022322;28;20215;-72
2021/07/20 10:40:09;;;;;;;9.07;4.73;;;37.40;37.50;;;;;;5043527;28;20281;-72
2021/07/20 10:42:50;;;;;;;9.13;4.00;;;37.50;37.10;;;;;;5045074;28;20206;-73
2021/07/20 10:45:18;;;;;;;6.33;4.33;;;37.60;36.20;;;;;;5025408;28;20207;-72
2021/07/20 10:48:07;;;;;;;6.17;4.10;;;37.60;36.00;;;;;;5041539;28;20218;-72
2021/07/20 10:51:01;;;;;;;6.23;3.87;;;37.70;35.90;;;;;;5034985;28;20243;-72
2021/07/20 10:53:35;;;;;;;6.53;4.10;;;37.70;34.60;;;;;;5037683;28;20223;-72
2021/07/20 10:56:30;;;;;;;9.53;4.20;;;37.70;35.90;;;;;;5038352;28;20773;-72
2021/07/20 10:59:10;;;;;;;8.27;4.03;;;37.70;36.90;;;;;;5033899;28;20218;-72
2021/07/20 11:01:48;;;;;;;6.73;4.03;;;37.70;33.90;;;;;;5042949;28;20234;-72
2021/07/20 11:04:37;;;;;;;7.43;4.53;;;37.60;35.40;;;;;;5041877;28;20215;-72
2021/07/20 11:07:07;;;;;;;7.47;4.43;;;37.60;36.60;;;;;;5041498;28;20215;-72
2021/07/20 11:09:38;;;;;;;9.77;4.50;;;37.70;36.50;;;;;;5041016;28;20214;-72
2021/07/20 11:12:08;;;;;;;10.20;4.43;;;37.60;34.50;;;;;;5043350;28;20207;-76
2021/07/20 11:14:49;;;;;;;8.83;4.23;;;37.50;34.70;;;;;;5040916;28;20218;-76
2021/07/20 11:17:20;;;;;;;9.40;4.40;;;37.50;33.60;;;;;;5038733;28;20213;-75
2021/07/20 11:19:51;;;;;;;11.60;4.80;;;37.40;34.60;;;;;;5043852;28;20260;-76
2021/07/20 11:22:18;;;;;;;8.73;3.70;;;37.40;36.10;;;;;;5042539;28;20558;-76
2021/07/20 11:24:46;;;;;;;13.67;4.40;;;37.50;36.30;;;;;;5042916;28;20218;-76
2021/07/20 11:27:16;;;;;;;12.53;4.23;;;37.60;35.90;;;;;;5041308;28;20284;-76
2021/07/20 11:29:43;;;;;;;7.70;4.63;;;37.70;35.40;;;;;;5044472;28;20248;-76
2021/07/20 11:32:15;;;;;;;9.60;4.17;;;37.70;34.40;;;;;;5042420;28;20210;-76
2021/07/20 11:34:57;;;;;;;8.43;4.37;;;37.60;34.40;;;;;;5046694;28;20266;-76
2021/07/20 11:37:31;;;;;;;6.67;3.90;;;37.50;35.40;;;;;;5044946;28;20210;-75
2021/07/20 11:40:13;;;;;;;12.30;3.93;;;37.50;35.90;;;;;;5039275;28;20227;-76
2021/07/20 11:43:14;;;;;;;6.03;4.10;;;37.40;36.50;;;;;;5046056;28;20646;-76
2021/07/20 11:46:04;;;;;;;10.87;4.57;;;37.50;37.20;;;;;;5046902;28;20244;-75
2021/07/20 11:48:58;;;;;;;8.93;4.50;;;37.40;35.50;;;;;;5044449;28;20293;-76
2021/07/20 11:51:32;;;;;;;10.93;4.80;;;37.30;36.10;;;;;;5037837;28;20245;-76
2021/07/20 11:54:06;;;;;;;8.57;3.87;;;37.30;34.30;;;;;;5046425;28;20217;-75
2021/07/20 11:56:43;;;;;;;7.00;4.03;;;37.30;35.70;;;;;;5045885;28;20214;-75
2021/07/20 11:59:22;;;;;;;9.33;4.13;;;37.30;35.40;;;;;;5040696;28;20223;-75
2021/07/20 12:02:14;;;;;;;5.77;4.33;;;37.40;34.30;;;;;;5043679;28;20222;-75
2021/07/20 12:05:02;;;;;;;7.37;3.90;;;37.30;35.00;;;;;;5041643;28;20238;-75
2021/07/20 12:07:42;;;;;;;8.90;4.00;;;37.40;35.40;;;;;;5044602;28;20221;-75
2021/07/20 12:10:46;;;;;;;7.73;4.63;;;37.50;35.30;;;;;;5041928;28;20246;-72
2021/07/20 12:13:16;;;;;;;6.30;4.20;;;37.50;35.30;;;;;;5044397;28;20217;-72
2021/07/20 12:15:46;;;;;;;14.33;4.43;;;37.50;34.50;;;;;;5045962;28;20280;-72
2021/07/20 12:18:13;;;;;;;9.03;4.53;;;37.50;34.90;;;;;;5046290;28;20749;-73
2021/07/20 12:20:43;;;;;;;10.50;4.43;;;37.50;35.70;;;;;;5045105;28;20249;-72
2021/07/20 12:23:11;;;;;;;10.00;5.50;;;37.40;36.10;;;;;;5046372;28;20640;-72
2021/07/20 12:25:39;;;;;;;9.30;5.17;;;37.30;36.20;;;;;;5045315;28;20207;-72
2021/07/20 12:28:08;;;;;;;10.90;5.13;;;37.30;36.60;;;;;;5043818;28;20584;-72
2021/07/20 12:30:35;;;;;;;9.07;4.80;;;37.40;36.40;;;;;;5046442;28;20231;-72
2021/07/20 12:33:14;;;;;;;11.50;6.03;;;37.30;35.90;;;;;;5043467;28;20215;-72
2021/07/20 12:35:45;;;;;;;11.77;5.30;;;37.30;36.10;;;;;;5039758;28;20211;-73
2021/07/20 12:38:12;;;;;;;8.17;4.10;;;37.30;35.70;;;;;;5040086;28;20243;-72
2021/07/20 12:40:39;;;;;;;11.30;4.70;;;37.20;33.30;;;;;;5039886;28;20233;-72
2021/07/20 12:43:24;;;;;;;16.10;6.13;;;36.90;34.80;;;;;;5040900;28;20222;-72
2021/07/20 12:45:51;;;;;;;7.83;4.57;;;36.80;36.40;;;;;;5044095;28;20222;-73
2021/07/20 12:48:23;;;;;;;7.53;4.63;;;36.80;36.10;;;;;;5045716;28;20688;-72
2021/07/20 12:50:51;;;;;;;9.70;5.70;;;36.90;35.90;;;;;;5045987;28;20273;-72
2021/07/20 12:53:20;;;;;;;12.27;5.10;;;36.80;35.50;;;;;;5042766;28;20591;-72
2021/07/20 12:55:48;;;;;;;12.40;5.20;;;36.80;36.80;;;;;;5044392;28;20218;-72
2021/07/20 12:58:18;;;;;;;6.93;4.27;;;36.90;36.20;;;;;;5043467;28;20606;-72
2021/07/20 13:00:46;;;;;;;7.00;4.63;;;36.80;35.40;;;;;;5045955;28;20562;-71
2021/07/20 13:03:14;;;;;;;9.23;4.57;;;36.70;36.50;;;;;;5043958;28;20789;-72
2021/07/20 13:05:43;;;;;;;8.87;4.70;;;36.80;36.20;;;;;;5045729;28;20218;-72
2021/07/20 13:08:18;;;;;;;13.17;4.50;;;36.80;35.90;;;;;;5043565;28;20306;-72
2021/07/20 13:10:50;;;;;;;8.83;4.37;;;36.80;36.00;;;;;;5037887;28;20265;-72